Greenview, South Carolina
Current Conditions -  °F | °C
As of 10:53 AM on Friday 28 Nov 2014 (Local Time) from KCUB Reporting Station
Clear Clear  
Wind Chill: 40°   Ceiling: Unl
Heat Index: 43°   Visibility: 10mi
Dew Point: 18°   Wind: 5mph
Humidity: 37%   Direction: NA
Pressure: 30.43"   Gusts: NA
Location:  34.1179°N, 81.0612°W
Report Text: KCUB 281553Z AUTO VRB04KT 10SM CLR 06/M08 A3043 RMK AO2 SLP304 T00611078
Loading
Personal Weather Stations






























Interactive Weather Map New forecast layout! Learn more

10-Day Weather Forecast

Advertisements
Track Severe Weather on mobile